Time;durP1;ratioP1;P1;durP2;ratioP2;P2;SDS_P1;SDS_P2;PMS_P1;PMS_P2;Temp;Humidity;BMP_temperature;BMP_pressure;BME280_temperature;BME280_humidity;BME280_pressure;Samples;Min_cycle;Max_cycle;Signal;HPM_P1;HPM_P2
2021/10/24 00:01:24;;;;;;;5.57;3.80;;;4.00;66.40;;;;;;5071828;28;20273;-64
2021/10/24 00:03:51;;;;;;;6.50;4.07;;;4.00;66.40;;;;;;5071421;28;20213;-63
2021/10/24 00:06:20;;;;;;;6.72;4.45;;;4.00;66.00;;;;;;5071356;28;20193;-63
2021/10/24 00:08:47;;;;;;;7.22;4.85;;;4.00;65.60;;;;;;5071571;28;20192;-63
2021/10/24 00:11:14;;;;;;;5.78;3.78;;;3.90;65.20;;;;;;5071817;28;20237;-64
2021/10/24 00:13:41;;;;;;;5.05;4.13;;;3.90;64.00;;;;;;5071427;28;20276;-65
2021/10/24 00:16:08;;;;;;;7.00;3.90;;;3.90;64.30;;;;;;5051783;28;20194;-64
2021/10/24 00:18:36;;;;;;;6.03;4.63;;;3.80;65.10;;;;;;5051807;28;20653;-63
2021/10/24 00:21:03;;;;;;;7.05;4.95;;;3.70;65.10;;;;;;5070622;28;20190;-64
2021/10/24 00:23:32;;;;;;;7.80;4.35;;;3.70;66.40;;;;;;5071769;28;20503;-63
2021/10/24 00:25:59;;;;;;;6.85;4.75;;;3.70;66.90;;;;;;5071873;28;20640;-64
2021/10/24 00:28:27;;;;;;;8.88;4.90;;;3.70;67.50;;;;;;5071425;28;20186;-65
2021/10/24 00:30:54;;;;;;;5.60;3.88;;;3.70;67.70;;;;;;5071133;28;20223;-65
2021/10/24 00:33:22;;;;;;;8.93;5.45;;;3.80;67.80;;;;;;5071476;28;20197;-63
2021/10/24 00:35:49;;;;;;;7.10;5.35;;;3.70;67.30;;;;;;5071664;28;20194;-63
2021/10/24 00:38:17;;;;;;;6.88;4.68;;;3.70;66.80;;;;;;5070770;28;20186;-63
2021/10/24 00:40:45;;;;;;;5.35;3.85;;;3.80;66.70;;;;;;5071607;28;20193;-63
2021/10/24 00:43:13;;;;;;;6.35;4.60;;;3.70;67.10;;;;;;5071232;28;20209;-63
2021/10/24 00:45:42;;;;;;;7.07;4.50;;;3.70;66.50;;;;;;5071912;28;20583;-63
2021/10/24 00:48:12;;;;;;;6.63;4.70;;;3.70;66.50;;;;;;5071409;28;20198;-63
2021/10/24 00:50:44;;;;;;;6.57;4.57;;;3.60;65.90;;;;;;5071483;28;20287;-64
2021/10/24 00:53:14;;;;;;;10.40;5.20;;;3.60;65.30;;;;;;5070599;28;20217;-63
2021/10/24 00:55:42;;;;;;;7.47;4.88;;;3.50;65.60;;;;;;5071394;28;20186;-63
2021/10/24 00:58:12;;;;;;;8.73;6.20;;;3.40;66.00;;;;;;5071607;28;20197;-63
2021/10/24 01:00:40;;;;;;;9.43;6.28;;;3.40;66.30;;;;;;5071185;28;20236;-64
2021/10/24 01:03:08;;;;;;;6.47;4.78;;;3.30;66.70;;;;;;5071648;28;20206;-63
2021/10/24 01:05:36;;;;;;;7.63;4.97;;;3.30;67.10;;;;;;5070983;28;20194;-64
2021/10/24 01:08:04;;;;;;;6.20;5.40;;;3.40;66.60;;;;;;5071394;28;20566;-64
2021/10/24 01:10:33;;;;;;;7.85;5.05;;;3.40;66.00;;;;;;5070341;28;20222;-64
2021/10/24 01:13:00;;;;;;;5.75;4.63;;;3.40;65.60;;;;;;5073440;28;20189;-63
2021/10/24 01:15:29;;;;;;;6.88;4.32;;;3.40;65.50;;;;;;5074801;28;20625;-63
2021/10/24 01:17:57;;;;;;;5.20;4.32;;;3.40;65.20;;;;;;5074650;28;20725;-65
2021/10/24 01:20:26;;;;;;;5.13;3.83;;;3.30;64.90;;;;;;5074474;28;20192;-63
2021/10/24 01:22:55;;;;;;;7.10;4.93;;;3.30;66.00;;;;;;5074611;28;20194;-63
2021/10/24 01:25:22;;;;;;;6.68;4.53;;;3.20;66.60;;;;;;5073339;28;20702;-65
2021/10/24 01:27:51;;;;;;;7.45;4.43;;;3.20;67.00;;;;;;5074335;28;20272;-63
2021/10/24 01:30:19;;;;;;;7.80;4.47;;;3.10;67.50;;;;;;5074222;28;20206;-63
2021/10/24 01:32:47;;;;;;;4.80;4.30;;;3.20;67.40;;;;;;5074459;28;20652;-63
2021/10/24 01:35:15;;;;;;;10.57;4.65;;;3.20;67.50;;;;;;5074118;28;20227;-63
2021/10/24 01:37:44;;;;;;;8.80;3.70;;;3.20;68.10;;;;;;5074352;28;20197;-64
2021/10/24 01:40:17;;;;;;;6.85;4.68;;;3.10;66.90;;;;;;5073880;28;20225;-65
2021/10/24 01:42:50;;;;;;;8.65;4.13;;;3.10;67.80;;;;;;5074238;28;20190;-64
2021/10/24 01:45:19;;;;;;;6.07;3.75;;;3.10;68.30;;;;;;5074406;28;20666;-65
2021/10/24 01:47:55;;;;;;;6.20;4.78;;;3.10;68.30;;;;;;5073796;28;20189;-63
2021/10/24 01:50:23;;;;;;;7.57;4.95;;;3.20;68.90;;;;;;5074152;28;20221;-63
2021/10/24 01:52:58;;;;;;;5.32;4.20;;;3.20;68.80;;;;;;5073805;28;20554;-63
2021/10/24 01:55:27;;;;;;;12.57;4.63;;;3.10;68.50;;;;;;5074255;28;20559;-63
2021/10/24 01:57:56;;;;;;;7.00;4.20;;;3.20;68.20;;;;;;5073558;28;20343;-63
2021/10/24 02:00:24;;;;;;;5.68;4.22;;;3.20;68.40;;;;;;5069986;28;20284;-64
2021/10/24 02:02:56;;;;;;;7.25;4.10;;;3.10;68.10;;;;;;5074147;28;20189;-63
2021/10/24 02:05:24;;;;;;;5.65;3.72;;;3.10;67.60;;;;;;5073932;28;20186;-63
2021/10/24 02:07:51;;;;;;;8.00;5.10;;;3.00;66.90;;;;;;5073618;28;20229;-63
2021/10/24 02:10:19;;;;;;;5.28;3.65;;;3.00;67.10;;;;;;5073204;28;20225;-63
2021/10/24 02:12:53;;;;;;;11.43;5.13;;;3.00;66.90;;;;;;5073458;28;20185;-63
2021/10/24 02:15:20;;;;;;;6.70;4.20;;;3.00;67.10;;;;;;5073044;28;20214;-63
2021/10/24 02:17:51;;;;;;;6.72;4.45;;;2.90;67.50;;;;;;5073866;28;20218;-63
2021/10/24 02:20:19;;;;;;;8.48;4.40;;;2.90;67.70;;;;;;5073552;28;20189;-63
2021/10/24 02:22:46;;;;;;;6.50;4.05;;;2.90;68.00;;;;;;5073371;28;20204;-64
2021/10/24 02:25:14;;;;;;;5.05;3.60;;;2.90;68.10;;;;;;5072180;28;20186;-63
2021/10/24 02:27:42;;;;;;;7.45;4.35;;;2.90;68.50;;;;;;5073198;28;20682;-63
2021/10/24 02:30:12;;;;;;;6.90;4.53;;;2.80;69.20;;;;;;5072977;28;20224;-65
2021/10/24 02:32:40;;;;;;;6.75;4.50;;;2.80;69.40;;;;;;5073051;28;20186;-63
2021/10/24 02:35:08;;;;;;;9.02;5.53;;;2.80;69.30;;;;;;5073226;28;20190;-64
2021/10/24 02:37:36;;;;;;;9.45;5.63;;;2.90;69.00;;;;;;5073244;28;20197;-64
2021/10/24 02:40:06;;;;;;;6.60;4.53;;;2.80;69.20;;;;;;5072582;28;20208;-63
2021/10/24 02:42:36;;;;;;;8.05;4.95;;;2.70;69.40;;;;;;5073203;28;20552;-64
2021/10/24 02:45:05;;;;;;;7.30;4.72;;;2.70;69.90;;;;;;5072751;28;20186;-63
2021/10/24 02:47:34;;;;;;;5.85;4.40;;;2.80;69.60;;;;;;5072339;28;20189;-65
2021/10/24 02:50:06;;;;;;;7.45;4.47;;;2.80;69.00;;;;;;5072909;28;20198;-64
2021/10/24 02:52:33;;;;;;;7.20;5.03;;;2.70;68.30;;;;;;5072893;28;20239;-63
2021/10/24 02:55:00;;;;;;;5.60;4.55;;;2.70;68.30;;;;;;5072556;28;20193;-64
2021/10/24 02:57:28;;;;;;;10.13;6.25;;;2.70;68.70;;;;;;5072828;28;20262;-63
2021/10/24 02:59:56;;;;;;;6.78;4.85;;;2.70;68.20;;;;;;5072498;28;20220;-63
2021/10/24 03:02:23;;;;;;;7.55;4.60;;;2.70;68.20;;;;;;5073070;28;20276;-63
2021/10/24 03:04:52;;;;;;;8.07;5.20;;;2.60;68.40;;;;;;5072153;28;20679;-64
2021/10/24 03:07:19;;;;;;;9.45;5.53;;;2.60;68.70;;;;;;5072796;28;20243;-63
2021/10/24 03:09:46;;;;;;;9.23;6.40;;;2.60;68.40;;;;;;5071927;28;20672;-63
2021/10/24 03:12:13;;;;;;;7.93;6.38;;;2.70;67.60;;;;;;5072525;28;20220;-63
2021/10/24 03:14:41;;;;;;;8.23;6.25;;;2.60;68.10;;;;;;5072198;28;20236;-63
2021/10/24 03:17:08;;;;;;;9.63;5.28;;;2.70;68.60;;;;;;5072462;28;20236;-64
2021/10/24 03:19:35;;;;;;;9.88;5.95;;;2.60;68.60;;;;;;5071877;28;20190;-64
2021/10/24 03:22:04;;;;;;;6.57;4.55;;;2.70;68.70;;;;;;5073184;28;20540;-64
2021/10/24 03:24:32;;;;;;;6.95;5.05;;;2.70;68.40;;;;;;5072146;28;20186;-64
2021/10/24 03:27:00;;;;;;;10.15;5.32;;;2.70;67.40;;;;;;5072659;28;20190;-63
2021/10/24 03:29:27;;;;;;;7.25;4.60;;;2.60;66.40;;;;;;5071620;28;20303;-63
2021/10/24 03:31:55;;;;;;;6.10;4.75;;;2.60;67.00;;;;;;5071800;28;20217;-63
2021/10/24 03:34:23;;;;;;;6.47;4.80;;;2.60;67.50;;;;;;5072208;28;20213;-63
2021/10/24 03:36:50;;;;;;;5.70;4.20;;;2.50;67.90;;;;;;5071231;28;20200;-63
2021/10/24 03:39:19;;;;;;;6.15;4.57;;;2.50;69.00;;;;;;5072157;28;20291;-64
2021/10/24 03:41:46;;;;;;;7.93;6.15;;;2.50;69.00;;;;;;5071758;28;20247;-63
2021/10/24 03:44:13;;;;;;;6.40;5.10;;;2.50;68.40;;;;;;5072184;28;20194;-63
2021/10/24 03:46:41;;;;;;;6.93;5.22;;;2.40;69.00;;;;;;5071720;28;20208;-63
2021/10/24 03:49:08;;;;;;;5.45;4.38;;;2.40;69.10;;;;;;5072241;28;20193;-63
2021/10/24 03:51:35;;;;;;;8.05;5.80;;;2.50;69.20;;;;;;5071376;28;20210;-63
2021/10/24 03:54:02;;;;;;;6.00;5.20;;;2.50;68.50;;;;;;5071897;28;20643;-64
2021/10/24 03:56:31;;;;;;;6.82;4.80;;;2.50;66.90;;;;;;5071785;28;20192;-63
2021/10/24 03:58:58;;;;;;;11.10;7.38;;;2.50;67.30;;;;;;5072165;28;20621;-63
2021/10/24 04:01:26;;;;;;;13.18;8.63;;;2.40;68.50;;;;;;5071666;28;20185;-63
2021/10/24 04:03:53;;;;;;;17.38;8.18;;;2.40;69.00;;;;;;5072267;28;20196;-63
2021/10/24 04:06:20;;;;;;;13.95;7.95;;;2.40;69.30;;;;;;5071737;28;20219;-63
2021/10/24 04:08:47;;;;;;;9.27;6.13;;;2.40;69.10;;;;;;5071612;28;20208;-63
2021/10/24 04:11:15;;;;;;;6.35;5.18;;;2.40;68.50;;;;;;5072116;28;20227;-64
2021/10/24 04:13:44;;;;;;;13.63;7.55;;;2.40;68.60;;;;;;5071719;28;20209;-63
2021/10/24 04:16:11;;;;;;;14.77;9.02;;;2.20;68.60;;;;;;5072011;28;20206;-64
2021/10/24 04:18:38;;;;;;;18.55;6.93;;;2.20;68.90;;;;;;5071455;28;20185;-65
2021/10/24 04:21:06;;;;;;;12.25;6.88;;;2.20;69.00;;;;;;5072133;28;20267;-63
2021/10/24 04:23:33;;;;;;;11.50;6.90;;;2.20;69.40;;;;;;5070837;28;20194;-63
2021/10/24 04:26:00;;;;;;;10.00;6.13;;;2.10;69.50;;;;;;5071864;28;20209;-63
2021/10/24 04:28:28;;;;;;;12.98;6.18;;;2.20;69.70;;;;;;5071557;28;20200;-63
2021/10/24 04:30:56;;;;;;;16.63;9.07;;;2.10;70.20;;;;;;5071610;28;20236;-63
2021/10/24 04:33:24;;;;;;;9.85;5.63;;;2.10;70.50;;;;;;5070537;28;20726;-64
2021/10/24 04:35:51;;;;;;;8.85;5.45;;;2.10;70.30;;;;;;5071765;28;20197;-63
2021/10/24 04:38:18;;;;;;;10.00;6.15;;;2.10;70.00;;;;;;5071504;28;20194;-64
2021/10/24 04:40:46;;;;;;;10.73;6.95;;;2.10;69.90;;;;;;5071529;28;20273;-63
2021/10/24 04:43:14;;;;;;;15.85;8.43;;;2.00;69.10;;;;;;5071694;28;20198;-63
2021/10/24 04:45:42;;;;;;;13.27;7.65;;;1.90;69.00;;;;;;5071446;28;20674;-63
2021/10/24 04:48:11;;;;;;;17.35;7.80;;;1.90;69.40;;;;;;5073910;28;20189;-63
2021/10/24 04:50:38;;;;;;;11.70;7.38;;;1.90;69.70;;;;;;5074910;28;20243;-65
2021/10/24 04:53:07;;;;;;;9.57;6.38;;;1.90;70.10;;;;;;5075175;28;20558;-64
2021/10/24 04:55:34;;;;;;;11.38;6.50;;;1.90;70.00;;;;;;5075416;28;20598;-63
2021/10/24 04:58:02;;;;;;;7.50;5.55;;;1.90;70.00;;;;;;5074896;28;20189;-63
2021/10/24 05:00:31;;;;;;;7.60;5.30;;;1.90;70.00;;;;;;5075313;28;20213;-63
2021/10/24 05:03:00;;;;;;;7.10;4.90;;;1.90;71.20;;;;;;5075496;28;20190;-63
2021/10/24 05:05:30;;;;;;;7.13;4.80;;;2.00;70.50;;;;;;5074863;28;20213;-63
2021/10/24 05:07:57;;;;;;;7.38;4.97;;;2.00;70.30;;;;;;5075207;28;20656;-63
2021/10/24 05:10:24;;;;;;;7.35;5.03;;;2.10;70.00;;;;;;5074236;28;20276;-63
2021/10/24 05:12:52;;;;;;;6.82;5.30;;;2.10;68.60;;;;;;5074886;28;20210;-63
2021/10/24 05:15:21;;;;;;;8.40;5.50;;;2.10;68.70;;;;;;5074996;28;20193;-63
2021/10/24 05:17:49;;;;;;;7.60;5.25;;;2.00;68.80;;;;;;5074916;28;20208;-63
2021/10/24 05:20:17;;;;;;;10.27;4.93;;;2.00;69.20;;;;;;5075047;28;20196;-63
2021/10/24 05:22:47;;;;;;;6.45;4.53;;;2.00;69.70;;;;;;5074512;28;20193;-63
2021/10/24 05:25:17;;;;;;;7.07;5.07;;;2.00;69.60;;;;;;5075000;28;20193;-63
2021/10/24 05:27:44;;;;;;;6.47;4.80;;;2.00;69.90;;;;;;5074359;28;20215;-63
2021/10/24 05:30:11;;;;;;;6.30;4.60;;;2.00;70.10;;;;;;5074234;28;20190;-63
2021/10/24 05:32:40;;;;;;;6.75;4.43;;;2.00;70.20;;;;;;5074731;28;20701;-64
2021/10/24 05:35:10;;;;;;;5.55;4.22;;;1.90;68.80;;;;;;5074322;28;20192;-63
2021/10/24 05:37:38;;;;;;;8.13;5.57;;;1.80;69.10;;;;;;5074583;28;20190;-63
2021/10/24 05:40:09;;;;;;;8.35;5.55;;;1.70;69.80;;;;;;5074348;28;20182;-63
2021/10/24 05:42:36;;;;;;;8.15;5.55;;;1.60;70.60;;;;;;5074617;28;20276;-64
2021/10/24 05:45:04;;;;;;;6.60;4.50;;;1.50;70.10;;;;;;5073449;28;20178;-63
2021/10/24 05:47:32;;;;;;;8.40;5.90;;;1.50;70.40;;;;;;5054682;28;20201;-63
2021/10/24 05:50:05;;;;;;;12.30;6.93;;;1.50;70.60;;;;;;5067611;28;20208;-63
2021/10/24 05:52:32;;;;;;;8.55;5.80;;;1.50;70.10;;;;;;5074410;28;20218;-64
2021/10/24 05:55:06;;;;;;;11.52;7.40;;;1.50;70.00;;;;;;5074012;28;20217;-64
2021/10/24 05:57:34;;;;;;;12.05;6.90;;;1.40;70.20;;;;;;5074034;28;20246;-64
2021/10/24 06:00:04;;;;;;;9.57;6.97;;;1.50;70.60;;;;;;5074238;28;20263;-63
2021/10/24 06:02:31;;;;;;;8.57;6.50;;;1.60;70.80;;;;;;5073838;28;20189;-63
2021/10/24 06:04:59;;;;;;;6.50;5.10;;;1.60;70.10;;;;;;5074394;28;20194;-63
2021/10/24 06:07:27;;;;;;;7.38;5.97;;;1.70;70.10;;;;;;5074035;28;20192;-63
2021/10/24 06:09:56;;;;;;;9.35;6.32;;;1.80;70.40;;;;;;5074093;28;20217;-63
2021/10/24 06:12:43;;;;;;;8.40;6.40;;;1.90;70.30;;;;;;5073619;28;20225;-63
2021/10/24 06:15:12;;;;;;;12.20;7.22;;;1.90;70.40;;;;;;5074281;28;20614;-63
2021/10/24 06:17:43;;;;;;;10.95;7.60;;;2.10;70.00;;;;;;5073000;28;20259;-63
2021/10/24 06:20:12;;;;;;;12.30;8.80;;;2.20;69.30;;;;;;5073891;28;20189;-63
2021/10/24 06:22:40;;;;;;;13.43;8.95;;;2.40;68.50;;;;;;5073391;28;20190;-63
2021/10/24 06:25:09;;;;;;;7.45;6.22;;;2.40;69.20;;;;;;5073803;28;20186;-63
2021/10/24 06:27:40;;;;;;;6.93;6.22;;;2.40;68.50;;;;;;5073446;28;20281;-63
2021/10/24 06:30:13;;;;;;;9.60;6.20;;;2.60;69.10;;;;;;5073692;28;20186;-64
2021/10/24 06:32:41;;;;;;;12.20;6.22;;;2.80;69.20;;;;;;5072383;28;20287;-63
2021/10/24 06:35:13;;;;;;;7.47;6.68;;;3.10;68.90;;;;;;5073108;28;20687;-63
2021/10/24 06:37:41;;;;;;;11.90;10.63;;;3.30;67.90;;;;;;5073477;28;20262;-63
2021/10/24 06:40:09;;;;;;;19.15;17.20;;;3.60;67.50;;;;;;5073064;28;20264;-63
2021/10/24 06:42:38;;;;;;;9.38;7.13;;;3.90;67.10;;;;;;5073503;28;20194;-63
2021/10/24 06:45:07;;;;;;;9.68;8.65;;;4.10;66.00;;;;;;5072713;28;20235;-65
2021/10/24 06:47:34;;;;;;;25.63;23.02;;;4.50;65.00;;;;;;5073535;28;20196;-64
2021/10/24 06:50:02;;;;;;;20.63;17.58;;;4.80;64.80;;;;;;5072391;28;20193;-64
2021/10/24 06:52:29;;;;;;;13.35;11.65;;;5.20;63.80;;;;;;5073196;28;20217;-63
2021/10/24 06:54:57;;;;;;;11.88;9.55;;;5.50;62.70;;;;;;5072746;28;20648;-63
2021/10/24 06:57:24;;;;;;;9.00;7.50;;;5.90;61.80;;;;;;5073090;28;20664;-63
2021/10/24 06:59:53;;;;;;;10.38;7.20;;;6.30;60.50;;;;;;5072480;28;20225;-64
2021/10/24 07:02:21;;;;;;;11.55;7.05;;;6.70;59.80;;;;;;5073119;28;20560;-63
2021/10/24 07:04:56;;;;;;;8.45;6.15;;;7.20;59.30;;;;;;5072291;28;20204;-63
2021/10/24 07:07:24;;;;;;;6.60;4.97;;;7.60;57.30;;;;;;5072225;28;20182;-67
2021/10/24 07:09:51;;;;;;;8.82;5.75;;;8.00;56.50;;;;;;5072079;28;20746;-63
2021/10/24 07:12:23;;;;;;;12.43;6.22;;;8.40;55.00;;;;;;5070039;28;20255;-64
2021/10/24 07:14:50;;;;;;;9.30;7.68;;;8.80;54.50;;;;;;5070844;28;20644;-64
2021/10/24 07:17:19;;;;;;;15.68;11.73;;;9.20;53.20;;;;;;5070546;28;20560;-64
2021/10/24 07:19:46;;;;;;;9.32;7.20;;;9.80;52.60;;;;;;5070216;28;20194;-64
2021/10/24 07:22:13;;;;;;;6.93;5.70;;;10.30;50.20;;;;;;5071013;28;20194;-64
2021/10/24 07:24:40;;;;;;;8.23;6.35;;;10.80;48.50;;;;;;5070544;28;20201;-63
2021/10/24 07:27:08;;;;;;;10.07;6.47;;;11.20;47.20;;;;;;5069942;28;20264;-63
2021/10/24 07:29:35;;;;;;;10.52;6.10;;;11.50;46.40;;;;;;5071242;28;20228;-63
2021/10/24 07:32:02;;;;;;;7.13;6.43;;;12.10;46.20;;;;;;5070525;28;20209;-63
2021/10/24 07:34:30;;;;;;;10.07;5.70;;;12.70;44.50;;;;;;5071101;28;20189;-64
2021/10/24 07:36:58;;;;;;;9.35;6.38;;;13.30;43.00;;;;;;5070557;28;20275;-63
2021/10/24 07:39:25;;;;;;;8.90;6.88;;;13.80;42.50;;;;;;5070978;28;20612;-63
2021/10/24 07:41:54;;;;;;;7.47;6.68;;;14.40;41.00;;;;;;5069966;28;20657;-64
2021/10/24 07:44:21;;;;;;;10.63;6.53;;;15.00;39.60;;;;;;5070026;28;20204;-62
2021/10/24 07:46:53;;;;;;;9.20;7.88;;;15.30;38.40;;;;;;5070439;28;20200;-63
2021/10/24 07:49:21;;;;;;;11.68;6.10;;;15.90;37.80;;;;;;5070649;28;20186;-63
2021/10/24 07:51:49;;;;;;;7.65;6.22;;;16.40;36.30;;;;;;5069901;28;20186;-67
2021/10/24 07:54:17;;;;;;;6.82;5.90;;;16.80;34.90;;;;;;5070596;28;20244;-62
2021/10/24 07:56:45;;;;;;;7.97;5.65;;;17.40;34.10;;;;;;5069844;28;20239;-63
2021/10/24 07:59:12;;;;;;;7.95;6.63;;;18.20;32.80;;;;;;5070033;28;20190;-66
2021/10/24 08:01:40;;;;;;;7.05;6.40;;;19.30;31.70;;;;;;5070475;28;20231;-64
2021/10/24 08:04:08;;;;;;;9.10;6.87;;;20.30;30.10;;;;;;5070977;28;20197;-64
2021/10/24 08:06:36;;;;;;;6.73;6.00;;;21.30;28.70;;;;;;5070805;28;20444;-64
2021/10/24 08:09:05;;;;;;;8.00;6.93;;;22.10;27.90;;;;;;5069781;28;20444;-65
2021/10/24 08:11:33;;;;;;;7.30;6.70;;;23.00;27.30;;;;;;5070783;28;20439;-64
2021/10/24 08:14:01;;;;;;;7.33;6.57;;;23.80;25.90;;;;;;5070332;28;20518;-64
2021/10/24 08:16:28;;;;;;;7.67;6.83;;;24.60;25.40;;;;;;5069801;28;20490;-65
2021/10/24 08:18:55;;;;;;;6.97;6.27;;;25.40;24.50;;;;;;5071271;28;20926;-64
2021/10/24 08:21:23;;;;;;;7.67;6.97;;;26.10;23.40;;;;;;5072474;28;20563;-63
2021/10/24 08:23:50;;;;;;;6.30;5.70;;;26.70;22.70;;;;;;5075230;28;20440;-64
2021/10/24 08:26:18;;;;;;;5.17;4.53;;;27.50;22.70;;;;;;5074804;28;20918;-64
2021/10/24 08:28:46;;;;;;;6.50;4.77;;;27.90;21.20;;;;;;5074625;28;20467;-65
2021/10/24 08:31:16;;;;;;;6.20;3.87;;;28.20;20.90;;;;;;5073719;28;20926;-65
2021/10/24 08:33:43;;;;;;;4.70;3.67;;;28.70;19.80;;;;;;5074355;28;20479;-65
2021/10/24 08:36:16;;;;;;;5.20;4.10;;;29.40;19.90;;;;;;5069494;28;20424;-65
2021/10/24 08:38:44;;;;;;;6.80;4.07;;;30.30;18.80;;;;;;5072680;28;20450;-65
2021/10/24 08:41:11;;;;;;;4.37;3.77;;;30.70;18.40;;;;;;5074513;28;20431;-66
2021/10/24 08:43:40;;;;;;;7.77;3.13;;;31.20;17.90;;;;;;5074582;28;20432;-65
2021/10/24 08:46:08;;;;;;;5.30;3.60;;;32.10;16.80;;;;;;5074518;28;20449;-65
2021/10/24 08:48:35;;;;;;;4.33;2.80;;;32.70;16.70;;;;;;5073310;28;20440;-65
2021/10/24 08:51:03;;;;;;;5.20;3.93;;;33.20;15.80;;;;;;5074045;28;20442;-66
2021/10/24 08:53:31;;;;;;;4.40;3.43;;;33.60;15.70;;;;;;5073946;28;20478;-65
2021/10/24 08:55:58;;;;;;;4.13;2.90;;;34.30;15.30;;;;;;5074440;28;20448;-65
2021/10/24 08:58:25;;;;;;;4.10;2.77;;;35.20;14.90;;;;;;5074311;28;20439;-65
2021/10/24 09:00:54;;;;;;;2.87;2.37;;;35.80;14.20;;;;;;5073924;28;20941;-66
2021/10/24 09:03:22;;;;;;;3.07;2.40;;;36.60;13.40;;;;;;5073493;28;20992;-65
2021/10/24 09:05:50;;;;;;;5.30;2.83;;;36.80;13.10;;;;;;5073541;28;20797;-65
2021/10/24 09:08:20;;;;;;;5.67;2.17;;;36.80;13.00;;;;;;5073466;28;20479;-67
2021/10/24 09:10:48;;;;;;;3.53;2.80;;;37.50;12.70;;;;;;5070570;28;20482;-64
2021/10/24 09:13:17;;;;;;;3.80;3.00;;;37.90;12.40;;;;;;5073305;28;20981;-66
2021/10/24 09:15:47;;;;;;;4.53;2.90;;;38.30;12.20;;;;;;5073996;28;20519;-65
2021/10/24 09:18:17;;;;;;;3.87;2.70;;;39.20;12.20;;;;;;5070005;28;20435;-65
2021/10/24 09:20:44;;;;;;;2.80;2.20;;;39.70;11.00;;;;;;5073218;28;20436;-65
2021/10/24 09:23:13;;;;;;;2.90;2.40;;;40.00;10.70;;;;;;5073989;28;20517;-65
2021/10/24 09:25:55;;;;;;;2.90;2.30;;;40.50;10.60;;;;;;5072529;28;20428;-63
2021/10/24 09:28:24;;;;;;;3.87;2.17;;;41.00;10.20;;;;;;5073811;28;20468;-64
2021/10/24 09:31:01;;;;;;;2.30;1.83;;;41.30;9.30;;;;;;5072887;28;20436;-63
2021/10/24 09:33:45;;;;;;;2.97;2.13;;;41.50;9.00;;;;;;5073038;28;20574;-63
2021/10/24 09:36:13;;;;;;;3.53;2.40;;;41.90;10.00;;;;;;5070028;28;20432;-63
2021/10/24 09:38:43;;;;;;;5.07;2.40;;;42.60;9.70;;;;;;5073571;28;20436;-63
2021/10/24 09:41:11;;;;;;;3.50;2.37;;;43.10;9.50;;;;;;5072680;28;20436;-67
2021/10/24 09:43:38;;;;;;;3.20;2.03;;;43.60;9.10;;;;;;5073524;28;20470;-63
2021/10/24 09:46:14;;;;;;;3.23;2.37;;;44.00;8.00;;;;;;5073226;28;20961;-64
2021/10/24 09:48:47;;;;;;;3.33;2.07;;;43.80;8.30;;;;;;5073072;28;20435;-66
2021/10/24 09:51:18;;;;;;;2.93;2.20;;;43.80;8.70;;;;;;5073380;28;20448;-63
2021/10/24 09:53:54;;;;;;;3.37;2.17;;;44.00;8.70;;;;;;5072892;28;20777;-63
2021/10/24 09:56:23;;;;;;;2.80;2.20;;;44.20;8.30;;;;;;5069806;28;20439;-63
2021/10/24 09:58:51;;;;;;;4.90;3.10;;;44.30;8.10;;;;;;5073133;28;20432;-63
2021/10/24 10:01:20;;;;;;;3.07;2.40;;;44.70;8.30;;;;;;5072960;28;20530;-65
2021/10/24 10:03:49;;;;;;;3.57;2.50;;;45.20;8.10;;;;;;5073176;28;20511;-64
2021/10/24 10:06:17;;;;;;;3.57;2.67;;;45.60;7.80;;;;;;5068902;28;21430;-64
2021/10/24 10:08:44;;;;;;;4.57;2.53;;;45.80;7.50;;;;;;5071174;28;20475;-65
2021/10/24 10:11:18;;;;;;;3.43;2.60;;;46.10;7.60;;;;;;5070348;28;20451;-64
2021/10/24 10:13:48;;;;;;;4.20;2.13;;;46.30;7.70;;;;;;5071666;28;20515;-65
2021/10/24 10:16:18;;;;;;;3.60;2.70;;;46.40;7.10;;;;;;5070687;28;20923;-65
2021/10/24 10:19:04;;;;;;;3.20;2.23;;;46.50;7.30;;;;;;5069121;28;20980;-64
2021/10/24 10:21:33;;;;;;;3.10;2.80;;;46.60;6.80;;;;;;5073241;28;20763;-65
2021/10/24 10:24:01;;;;;;;2.93;2.20;;;46.20;6.90;;;;;;5072729;28;20479;-64
2021/10/24 10:26:37;;;;;;;3.30;2.10;;;46.30;7.10;;;;;;5072606;28;20443;-64
2021/10/24 10:29:05;;;;;;;4.20;2.80;;;46.50;6.80;;;;;;5072538;28;20424;-64
2021/10/24 10:31:32;;;;;;;3.67;3.00;;;45.80;6.50;;;;;;5071540;28;20578;-64
2021/10/24 10:34:03;;;;;;;3.37;2.60;;;45.70;7.20;;;;;;5072700;28;20489;-64
2021/10/24 10:36:57;;;;;;;3.50;2.70;;;46.10;7.50;;;;;;5072127;28;20504;-64
2021/10/24 10:39:41;;;;;;;3.77;3.00;;;46.70;7.30;;;;;;5071443;28;20439;-65
2021/10/24 10:42:46;;;;;;;4.13;3.07;;;47.20;6.90;;;;;;5072470;28;20493;-65
2021/10/24 10:45:38;;;;;;;3.97;3.23;;;47.40;6.70;;;;;;5071015;28;20846;-63
2021/10/24 10:48:07;;;;;;;3.47;2.80;;;47.80;6.90;;;;;;5067904;28;20440;-65
2021/10/24 10:50:49;;;;;;;3.60;3.00;;;48.30;6.50;;;;;;5070657;28;20958;-64
2021/10/24 10:53:52;;;;;;;4.10;2.70;;;48.40;6.80;;;;;;5067622;28;20510;-64
2021/10/24 10:56:28;;;;;;;4.60;4.20;;;48.60;6.50;;;;;;5068828;28;20448;-64
2021/10/24 10:58:57;;;;;;;3.33;3.00;;;48.90;6.50;;;;;;5071407;28;20529;-65
2021/10/24 11:01:30;;;;;;;3.33;2.57;;;49.20;6.30;;;;;;5071228;28;20784;-64
2021/10/24 11:04:00;;;;;;;3.93;2.43;;;49.30;6.10;;;;;;5070179;28;20506;-64
2021/10/24 11:06:53;;;;;;;4.77;3.10;;;49.50;6.20;;;;;;5070650;28;20436;-64
2021/10/24 11:09:41;;;;;;;3.60;3.03;;;;;;;;;;5064284;28;20826;-64
2021/10/24 11:12:11;;;;;;;6.10;2.73;;;;;;;;;;5070524;28;20871;-64
2021/10/24 11:14:43;;;;;;;4.37;2.43;;;;;;;;;;5067563;28;21353;-66
2021/10/24 11:17:10;;;;;;;2.97;2.10;;;;;;;;;;5067363;28;20436;-63
2021/10/24 11:19:50;;;;;;;3.50;2.53;;;;;;;;;;5069409;28;20444;-65
2021/10/24 11:22:20;;;;;;;2.83;2.43;;;;;;;;;;5067744;28;20443;-64
2021/10/24 11:24:48;;;;;;;3.80;3.10;;;;;;;;;;5068659;28;20529;-64
2021/10/24 11:27:17;;;;;;;3.37;2.33;;;;;;;;;;5069460;28;20440;-64
2021/10/24 11:29:48;;;;;;;2.60;2.20;;;;;;;;;;5069214;28;20444;-64
2021/10/24 11:32:17;;;;;;;3.77;2.43;;;;;;;;;;5069417;28;20440;-64
2021/10/24 11:34:45;;;;;;;4.33;2.30;;;;;;;;;;5069167;28;21198;-64
2021/10/24 11:37:12;;;;;;;3.63;2.67;;;;;;;;;;5069626;28;21071;-64
2021/10/24 11:39:41;;;;;;;3.77;2.40;;;;;;;;;;5069351;28;20455;-64
2021/10/24 11:42:10;;;;;;;3.00;2.30;;;;;;;;;;5068783;28;20839;-65
2021/10/24 11:44:37;;;;;;;3.80;2.43;;;;;;;;;;5066390;28;20482;-64
2021/10/24 11:47:09;;;;;;;3.50;2.60;;;;;;;;;;5069535;28;20456;-64
2021/10/24 11:49:44;;;;;;;3.20;2.60;;;;;;;;;;5068991;28;20779;-65
2021/10/24 11:52:11;;;;;;;4.40;2.77;;;;;;;;;;5069278;28;20450;-64
2021/10/24 11:54:39;;;;;;;4.07;2.60;;;;;;;;;;5069195;28;20436;-64
2021/10/24 11:57:29;;;;;;;3.50;2.40;;;;;;;;;;5069088;28;20448;-64
2021/10/24 12:00:07;;;;;;;4.00;2.53;;;;;;;;;;5069045;28;20455;-64
2021/10/24 12:02:34;;;;;;;3.07;2.30;;;;;;;;;;5068328;28;20455;-64
2021/10/24 12:05:11;;;;;;;3.00;2.17;;;;;;;;;;5068884;28;20492;-63
2021/10/24 12:07:50;;;;;;;3.83;2.20;;;;;;;;;;5070386;28;20440;-65
2021/10/24 12:10:18;;;;;;;4.57;2.37;;;;;;;;;;5070736;28;20499;-64
2021/10/24 12:12:46;;;;;;;4.17;2.70;;;;;;;;;;5070438;28;20443;-66
2021/10/24 12:15:15;;;;;;;3.70;2.43;;;;;;;;;;5070799;28;20447;-64
2021/10/24 12:17:43;;;;;;;3.33;2.50;;;;;;;;;;5070249;28;20479;-64
2021/10/24 12:20:15;;;;;;;3.80;2.60;;;48.80;5.60;;;;;;5070365;28;20770;-65
2021/10/24 12:22:44;;;;;;;2.90;2.07;;;47.00;7.50;;;;;;5066955;28;20790;-65
2021/10/24 12:25:16;;;;;;;4.83;2.40;;;46.90;7.20;;;;;;5070355;28;20483;-64
2021/10/24 12:27:45;;;;;;;3.50;2.50;;;46.70;7.10;;;;;;5069874;28;20960;-64
2021/10/24 12:30:18;;;;;;;3.20;2.33;;;46.10;7.30;;;;;;5066005;28;20992;-63
2021/10/24 12:32:57;;;;;;;2.73;2.27;;;45.70;7.50;;;;;;5070822;28;20435;-63
2021/10/24 12:35:24;;;;;;;3.77;2.40;;;45.60;7.50;;;;;;5070218;28;20440;-64
2021/10/24 12:37:58;;;;;;;4.13;2.30;;;45.30;7.40;;;;;;5070104;28;20509;-63
2021/10/24 12:40:28;;;;;;;2.40;2.03;;;44.40;7.70;;;;;;5070212;28;20471;-64
2021/10/24 12:43:19;;;;;;;3.37;2.33;;;43.50;8.10;;;;;;5070443;28;20502;-63
2021/10/24 12:45:53;;;;;;;3.37;2.40;;;43.10;8.40;;;;;;5055832;28;20451;-63
2021/10/24 12:48:22;;;;;;;3.50;2.30;;;42.50;8.40;;;;;;5070623;28;20861;-63
2021/10/24 12:50:50;;;;;;;3.40;3.00;;;41.80;8.80;;;;;;5070288;28;20436;-64
2021/10/24 12:53:19;;;;;;;3.70;2.80;;;40.80;9.30;;;;;;5070483;28;20467;-65
2021/10/24 12:56:00;;;;;;;2.90;2.43;;;40.10;9.60;;;;;;5070693;28;20436;-63
2021/10/24 12:58:28;;;;;;;4.50;2.60;;;39.30;9.80;;;;;;5070107;28;20481;-63
2021/10/24 13:00:56;;;;;;;3.17;2.30;;;38.30;10.20;;;;;;5070271;28;20476;-65
2021/10/24 13:03:23;;;;;;;4.20;2.70;;;37.10;10.80;;;;;;5070406;28;20502;-64
2021/10/24 13:05:50;;;;;;;2.87;2.10;;;36.00;11.40;;;;;;5070436;28;20468;-66
2021/10/24 13:08:19;;;;;;;3.30;2.40;;;34.80;11.90;;;;;;5071235;28;20439;-63
2021/10/24 13:10:46;;;;;;;3.13;2.37;;;33.80;12.50;;;;;;5073847;28;20459;-66
2021/10/24 13:13:14;;;;;;;2.90;1.90;;;32.40;13.50;;;;;;5073437;28;21019;-66
2021/10/24 13:15:44;;;;;;;5.90;2.97;;;31.40;14.10;;;;;;5066548;28;20554;-66